• Join FlightAware (Why Join?)
  • Login
  • US Flag 
10:29AM EDT


 

Airport Tracker/Info


-or-


 

Live Flight TrackerFlight Track Log ✈ RPA3275 ✈ 22-May-2013 ✈ KALB - KPHL

Flight Track Log - Related Links

Times and Time Zones

All times are in EDT time to prevent confusion due to time zone crossing. See the RPA3275 flight status page for this flight to view local times or setup timezone preferences in your user account.

Time Position Orientation Groundspeed Altitude Reporting Facility
EDT Latitude Longitude Course Direction KTS MPH feet Rate Location/Type
06:58AM 42.7278 -73.8081 220° Southwest 144 166 1,700  Level Boston Center
06:59AM 42.7025 -73.8331 216° Southwest 185 213 2,600 1,740 Climbing Boston Center
07:00AM 42.7333 -74.1416 270° West  Level FlightAware Approximate
07:00AM 42.7117 -73.9150 279° West 244 281 4,900  Level Boston Center
07:00AM 42.7156 -73.9406 282° West 258 297 5,500 2,640 Climbing Boston Center
07:01AM 42.7333 -74.2554 270° West  Level FlightAware Approximate
07:01AM 42.7228 -74.0369 276° West 263 303 8,700  Level Boston Center
07:02AM 42.7003 -74.3518 220° Southwest  Level FlightAware Approximate
07:02AM 42.7314 -74.1444 276° West 256 295 11,400  Level Boston Center
07:03AM 42.6359 -74.4243 220° Southwest  Level FlightAware Approximate
07:03AM 42.7406 -74.2408 277° West 276 318 13,700  Level Boston Center
07:04AM 42.7094 -74.3503 249° West 281 323 15,800 1,140 Climbing Boston Center
07:05AM 42.6478 -74.4189 219° Southwest 281 323 16,000 60 Climbing Boston Center
07:06AM 42.5775 -74.5011 221° Southwest 299 344 16,000  Level Boston Center
07:07AM 42.5181 -74.5697 220° Southwest 317 365 16,000  Level Boston Center
07:08AM 42.4475 -74.6544 222° Southwest 317 365 16,000  Level Boston Center
07:10AM 42.3147 -74.8061 220° Southwest 320 368 16,100  Climbing New York Center
07:11AM 42.2478 -74.8806 219° Southwest 314 361 16,100  Level New York Center
07:12AM 42.1828 -74.9547 220° Southwest 314 361 16,100  Level New York Center
07:13AM 42.1011 -75.0250 213° Southwest 323 372 16,100  Level New York Center
07:14AM 42.0325 -75.0819 212° Southwest 323 372 16,100  Level New York Center
07:15AM 41.9511 -75.1464 210° Southwest 323 372 16,100  Level New York Center
07:16AM 41.8758 -75.2083 212° Southwest 323 372 16,100 -60 Level New York Center
07:17AM 41.7986 -75.2700 211° Southwest 328 377 16,000 -60 Descending New York Center
07:18AM 41.7297 -75.3264 211° Southwest 328 377 16,000  Level New York Center
07:19AM 41.6544 -75.3878 211° Southwest 323 372 16,000 -780 Level New York Center
07:20AM 41.5708 -75.4542 211° Southwest 328 377 14,500 -1,500 Descending New York Center
07:21AM 41.4978 -75.5100 210° Southwest 323 372 13,000 -1,320 Descending New York Center
07:22AM 41.4267 -75.5686 212° Southwest 317 365 11,900 -600 Descending New York Center
07:23AM 41.3533 -75.6269 211° Southwest 310 357 11,900  Level New York Center
07:24AM 41.2825 -75.6825 211° Southwest 310 357 11,900 -360 Level New York Center
07:25AM 41.1994 -75.6739 176° South 284 327 11,200 -720 Descending New York Center
07:26AM 41.1153 -75.6456 166° South 306 352 10,500 -660 Descending New York Center
07:27AM 41.0286 -75.6203 168° South 318 366 9,900 -300 Descending New York Center
07:28AM 40.9444 -75.5922 166° South 318 366 10,000  Climbing New York Center
07:29AM 40.8561 -75.5639 166° South 318 366 10,000  Level New York Center
07:30AM 40.7861 -75.5400 166° South 307 353 10,000  Level New York Center
07:31AM 40.7019 -75.5122 166° South 295 339 10,000  Level New York Center
07:32AM 40.6236 -75.4875 167° South 295 339 10,000  Level New York Center
07:33AM 40.5453 -75.4631 167° South 295 339 10,000  Level New York Center
07:34AM 40.4886 -75.4239 152° Southeast 295 339 10,000 -240 Level New York Center
07:35AM 40.4119 -75.3586 147° Southeast 295 339 9,600 -1,200 Descending New York Center
07:36AM 40.3372 -75.2964 148° Southeast 295 339 7,700 -1,800 Descending New York Center
07:37AM 40.2683 -75.2456 151° Southeast 289 333 6,100 -1,140 Descending New York Center
07:38AM 40.1994 -75.1950 151° Southeast 289 333 5,500 -1,020 Descending New York Center
07:39AM 40.1386 -75.1478 149° Southeast 283 326 4,100 -780 Descending New York Center
07:40AM 40.0656 -75.0942 151° Southeast 277 319 4,000 -120 Descending New York Center
07:41AM 40.0006 -75.0494 152° Southeast 277 319 3,900 -720 Descending New York Center
07:42AM 39.9333 -75.0000 151° Southeast 260 299 2,600 -1,320 Descending Philadelphia TRACON